Accueil
METAR-TAF:

METAR-TAF

Aéroports :

Aéroport civil d'Amman

Amman, Jordanie

latitude: 31-59N, longitude: 035-59E, altitude: 767 m

Observation

Le bulletin a été fait il y a 34 minutes, à 15:00 UTC
Vent 4 kt de sud-est
Température 17°C
Humidité 11%
Pression 1018 hPa
Visibilité: 6000 m

METAR: OJAM 211500Z 13004KT 6000 NSC 17/M14 Q1018 NOSIG

Heure: 17:34 (15:34 UTC)

Prévision

Le bulletin a été fait il y a 4 heures et 34 minutes, à 11:00 UTC
Prévision valable du 21 à 12 UTC au 22 à 18 UTC
Vent 8 kt de sud-est
Visibilité: 5000 m
brume sèche

TAF: OJAM 211100Z 2112/2218 13008KT 5000 HZ NSC

Observations et prévisions météorologiques de plus de 4000 aéroports (messages METAR et TAF).

Les stations disponibles sont représentées par des disques jaunes et rouges sur la carte.

Passer la souris dessus pour voir le nom de la station.

Cliquer dessus pour voir les observations et prévisions météorologiques.

Pour changer de carte: cliquez sur les boutons verts avec une croix noire pour zoomer, sur le bouton vert avec un tiret pour effectuer un zoom arrière, ou sur les flèches vertes pour les cartes adjacentes.


METAR-TAF: